Latest Weather Observations for Coonabarabran Airport

IDN60801

Issued at 3:03 am EDT Wednesday 19 February 2020 (issued every 10 minutes, with the page automatically refreshed every 10 minutes)

About weather observations | Map of weather stations | Latest weather observations for NSW | Other Formats
Station Details ID: 064017 Name: COONABARABRAN AIRPORT AWS Lat: -31.33 Lon: 149.27 Height: 645.0 m
Data from the previous 72 hours. | See also: Recent months at Coonabarabran Airport
Date/Time
EDT
Temp
°C
App
Temp
°C
Dew
Point
°C
Rel
Hum
%
Delta-T
°C
Wind Press
QNH
hPa
Press
MSL
hPa
Rain since
9am
mm
Dir  Spd
km/h
Gust
km/h
Spd
kts
Gust
kts
19/03:00am 18.0 19.1 18.0 100 0.0 SSW 9 13 5 7 1008.1 1004.1 65.8
19/02:46am 18.0 19.7 18.0 100 0.0 S 6 13 3 7 1008.1 1004.1 65.8
19/02:30am 18.3 19.9 18.3 100 0.0 NW 7 15 4 8 1008.6 1004.7 65.8
19/02:13am 18.0 19.7 18.0 100 0.0 NNW 6 13 3 7 1008.9 1005.0 65.8
19/02:00am 17.9 18.6 17.9 100 0.0 NNW 11 13 6 7 1009.4 1005.4 65.8
19/01:30am 17.8 17.3 17.8 100 0.0 N 17 26 9 14 1009.1 1005.2 51.2
19/01:07am 17.5 13.7 17.3 99 0.1 W 33 52 18 28 1007.7 1003.7 45.6
19/01:04am 17.6 13.1 17.3 98 0.2 W 37 52 20 28 1008.0 1004.0 44.6
19/01:00am 17.6 12.7 17.3 98 0.2 W 39 52 21 28 1008.1 1004.1 43.0
19/12:55am 17.9 13.9 17.7 99 0.1 WSW 35 52 19 28 1008.1 1004.1 40.4
19/12:47am 17.1 10.7 16.8 98 0.2 SW 46 76 25 41 1009.1 1005.2 37.4
19/12:45am 17.2 10.1 16.9 98 0.2 WSW 50 78 27 42 1009.5 1005.5 35.0
19/12:41am 17.7 10.7 17.2 97 0.3 W 50 78 27 42 1008.8 1004.9 26.2
19/12:36am 19.0 15.8 17.3 90 1.1 WNW 30 69 16 37 1008.6 1004.7 17.0
19/12:34am 21.2 20.2 18.0 82 2.0 NW 20 69 11 37 1008.3 1004.3 15.2
19/12:33am 22.6 22.8 19.4 82 2.1 NNW 17 39 9 21 1008.4 1004.4 15.2
19/12:30am 23.6 25.2 20.7 84 1.9 NNE 13 22 7 12 1007.7 1003.7 15.2
19/12:21am 23.9 23.7 20.6 82 2.2 NE 22 30 12 16 1006.9 1002.9 15.2
19/12:00am 19.4 16.3 16.6 84 1.7 SW 28 44 15 24 1007.0 1003.0 13.6
 
Date/Time
EDT
Temp
°C
App
Temp
°C
Dew
Point
°C
Rel
Hum
%
Delta-T
°C
Wind Press
QNH
hPa
Press
MSL
hPa
Rain since
9am
mm
Dir  Spd
km/h
Gust
km/h
Spd
kts
Gust
kts
18/11:58pm 18.4 14.7 16.0 86 1.5 WNW 30 46 16 25 1007.7 1003.7 13.2
18/11:54pm 23.4 22.3 21.1 87 1.5 NNW 28 46 15 25 1008.2 1004.2 7.8
18/11:49pm 22.9 20.8 20.6 87 1.5 N 32 46 17 25 1006.6 1002.6 2.2
18/11:30pm 24.7 24.9 20.6 78 2.7 N 20 30 11 16 1006.7 1002.7 0.2
18/11:00pm 24.7 24.6 20.8 79 2.6 N 22 30 12 16 1007.4 1003.5 0.2
18/10:30pm 24.9 24.9 21.0 79 2.6 N 22 30 12 16 1008.2 1004.2 0.2
18/10:00pm 24.8 25.7 20.9 79 2.6 N 17 22 9 12 1008.6 1004.7 0.2
18/09:30pm 24.9 26.5 20.8 78 2.8 NNW 13 17 7 9 1008.8 1004.9 0.2
18/09:00pm 25.1 26.6 20.6 76 3.0 NNW 13 17 7 9 1008.7 1004.8 0.2
18/08:30pm 25.8 26.9 20.4 72 3.6 N 15 19 8 10 1008.4 1004.4 0.2
18/08:00pm 26.5 27.0 20.1 68 4.3 NNW 17 24 9 13 1008.0 1004.0 0.2
18/07:30pm 26.8 27.8 20.2 67 4.4 NNW 15 20 8 11 1007.8 1003.8 0.2
18/07:00pm 27.6 27.7 19.9 63 5.2 NNW 19 30 10 16 1007.8 1003.8 0.2
18/06:30pm 27.7 27.4 19.5 61 5.5 NW 20 28 11 15 1008.1 1004.1 0.2
18/06:00pm 28.7 28.5 19.3 56 6.3 NNW 19 28 10 15 1008.3 1004.3 0.2
18/05:30pm 29.1 28.9 20.5 59 5.8 N 22 30 12 16 1008.3 1004.3 0.2
18/05:00pm 29.5 29.8 20.4 58 6.2 N 19 26 10 14 1008.6 1004.7 0.2
18/04:30pm 29.4 29.4 19.7 56 6.5 NNW 19 26 10 14 1008.9 1005.0 0.2
18/04:00pm 29.5 30.0 20.1 57 6.3 NNW 17 28 9 15 1009.4 1005.4 0.2
18/03:30pm 29.4 29.5 20.3 58 6.1 NNW 20 33 11 18 1009.8 1005.8 0.2
18/03:00pm 28.7 28.0 19.6 58 6.1 NNW 22 28 12 15 1010.1 1006.2 0.2
18/02:30pm 28.7 28.2 19.1 56 6.4 NNW 20 30 11 16 1010.7 1006.8 0.2
18/02:00pm 28.9 28.8 19.5 57 6.3 NNW 19 26 10 14 1011.2 1007.2 0.2
18/01:30pm 28.2 28.0 19.4 59 5.9 NW 19 28 10 15 1011.7 1007.8 0.2
18/01:00pm 27.3 28.2 20.1 64 4.8 NNW 15 26 8 14 1011.9 1008.0 0.2
18/12:30pm 26.6 27.8 20.7 70 4.0 NNW 15 24 8 13 1012.4 1008.5 0.2
18/12:00pm 25.8 26.3 20.1 71 3.8 N 17 24 9 13 1012.8 1008.9 0.2
18/11:30am 25.0 24.7 19.6 72 3.6 NNW 20 28 11 15 1013.1 1009.2 0.2
18/11:00am 24.3 23.3 19.6 75 3.1 NNW 24 35 13 19 1013.4 1009.5 0.2
18/10:30am 23.4 21.9 18.5 74 3.2 N 24 32 13 17 1013.4 1009.5 0.2
18/10:00am 22.5 21.6 18.1 76 2.8 N 20 28 11 15 1013.6 1009.7 0.0
18/09:30am 22.1 20.9 17.5 75 2.9 NNW 20 37 11 20 1013.9 1010.0 0.0
18/09:00am 21.0 19.9 17.2 79 2.4 N 19 24 10 13 1013.7 1009.8 29.0
18/08:30am 20.5 19.4 17.3 82 2.0 N 19 24 10 13 1013.6 1009.7 29.0
18/08:00am 19.6 18.4 17.4 87 1.4 NNW 20 26 11 14 1013.6 1009.7 29.0
18/07:30am 18.6 18.1 16.9 90 1.1 N 15 17 8 9 1013.4 1009.5 29.0
18/07:00am 18.1 17.7 17.1 94 0.6 N 15 19 8 10 1013.0 1009.1 29.0
18/06:30am 17.6 17.1 16.8 95 0.5 N 15 19 8 10 1013.0 1009.1 29.0
18/06:00am 17.7 17.3 17.1 96 0.4 N 15 19 8 10 1012.8 1008.9 29.0
18/05:30am 17.1 17.4 16.9 99 0.1 N 11 15 6 8 1012.8 1008.9 29.0
18/05:00am 17.2 17.0 16.7 97 0.3 NNE 13 17 7 9 1012.6 1008.6 29.0
18/04:30am 18.1 17.9 16.6 91 0.9 N 13 17 7 9 1012.4 1008.5 29.0
18/04:00am 18.6 18.1 16.8 89 1.1 N 15 22 8 12 1012.6 1008.6 29.0
18/03:30am 19.1 19.1 17.1 88 1.2 NNW 13 19 7 10 1012.7 1008.7 29.0
18/03:00am 18.5 18.0 17.0 91 0.9 NNW 15 20 8 11 1012.4 1008.5 29.0
18/02:30am 18.2 17.7 16.9 92 0.8 NNW 15 19 8 10 1012.7 1008.7 29.0
18/02:00am 18.2 17.7 17.0 93 0.7 NNW 15 20 8 11 1012.9 1009.0 29.0
18/01:30am 18.0 17.2 17.2 95 0.5 N 17 20 9 11 1013.1 1009.2 29.0
18/01:00am 17.9 18.2 17.9 100 0.0 N 13 19 7 10 1013.2 1009.3 29.0
18/12:36am 17.5 17.3 17.5 100 0.0 N 15 19 8 10 1013.6 1009.7 29.0
18/12:30am 17.5 16.9 17.5 100 0.0 N 17 20 9 11 1013.6 1009.7 29.0
18/12:15am 17.5 17.3 17.5 100 0.0 N 15 19 8 10 1013.7 1009.8 29.0
18/12:00am 17.5 17.6 17.5 100 0.0 N 13 17 7 9 1013.8 1009.9 29.0
 
Date/Time
EDT
Temp
°C
App
Temp
°C
Dew
Point
°C
Rel
Hum
%
Delta-T
°C
Wind Press
QNH
hPa
Press
MSL
hPa
Rain since
9am
mm
Dir  Spd
km/h
Gust
km/h
Spd
kts
Gust
kts
17/11:30pm 17.7 17.1 17.5 99 0.1 N 17 20 9 11 1014.0 1010.1 29.0
17/11:00pm 17.9 17.6 17.4 97 0.3 N 15 20 8 11 1014.3 1010.4 29.0
17/10:30pm 18.3 18.4 17.5 95 0.5 N 13 19 7 10 1014.6 1010.7 29.0
17/10:00pm 18.3 18.4 17.5 95 0.5 N 13 19 7 10 1014.6 1010.7 29.0
17/09:30pm 18.4 18.2 17.6 95 0.5 N 15 19 8 10 1014.0 1010.1 29.0
17/09:00pm 18.6 18.7 17.4 93 0.8 N 13 19 7 10 1014.0 1010.1 29.0
17/08:30pm 18.9 17.6 17.2 90 1.1 N 20 30 11 16 1013.9 1010.0 29.0
17/08:00pm 18.3 17.2 17.7 96 0.4 N 20 28 11 15 1013.7 1009.8 29.0
17/07:30pm 18.5 16.0 18.0 97 0.3 NE 28 35 15 19 1013.3 1009.4 29.0
17/07:21pm 18.6 16.2 18.3 98 0.2 NE 28 35 15 19 1013.4 1009.5 29.0
17/07:00pm 19.0 20.8 18.3 96 0.4 N 6 17 3 9 1014.0 1010.1 28.8
17/06:30pm 19.2 18.7 17.9 92 0.8 N 17 22 9 12 1013.8 1009.9 28.2
17/06:01pm 19.4 16.2 18.1 92 0.8 N 32 50 17 27 1012.2 1008.3 28.0
17/06:00pm 19.4 16.0 18.1 92 0.8 N 33 50 18 27 1012.2 1008.3 28.0
17/05:35pm 18.7 14.3 18.4 98 0.2 N 39 54 21 29 1011.4 1007.5 28.0
17/05:32pm 18.5 14.7 18.2 98 0.2 N 35 54 19 29 1011.2 1007.2 27.8
17/05:30pm 18.6 15.5 18.3 98 0.2 N 32 52 17 28 1011.5 1007.6 27.8
17/05:26pm 18.8 16.6 18.6 99 0.1 N 28 46 15 25 1012.3 1008.4 27.8
17/05:21pm 18.9 17.5 18.7 99 0.1 NNW 24 37 13 20 1013.6 1009.7 27.8
17/05:10pm 18.8 17.8 18.8 100 0.0 WNW 22 28 12 15 1015.0 1011.1 26.6
17/05:00pm 18.8 18.7 18.8 100 0.0 N 17 24 9 13 1013.3 1009.4 26.6
17/04:40pm 18.6 17.9 18.6 100 0.0 ENE 20 28 11 15 1012.7 1008.7 26.2
17/04:30pm 18.5 17.7 18.5 100 0.0 ENE 20 26 11 14 1012.2 1008.3 26.2
17/04:00pm 18.3 16.7 18.3 100 0.0 ENE 24 35 13 19 1012.4 1008.5 26.2
17/03:49pm 18.2 15.4 18.2 100 0.0 ENE 30 39 16 21 1012.0 1008.1 26.2
17/03:30pm 18.0 16.8 17.4 96 0.4 E 20 32 11 17 1013.1 1009.2 25.2
17/03:19pm 17.8 15.4 17.3 97 0.3 E 26 41 14 22 1013.4 1009.5 23.4
17/03:09pm 17.8 16.8 17.6 99 0.1 E 19 28 10 15 1014.4 1010.5 21.0
17/03:01pm 18.0 16.2 17.8 99 0.1 ENE 24 33 13 18 1014.4 1010.5 20.8
17/03:00pm 18.2 16.5 18.0 99 0.1 ENE 24 33 13 18 1014.4 1010.5 20.8
17/02:30pm 19.0 17.2 18.8 99 0.1 S 26 35 14 19 1014.7 1010.8 15.8
17/02:17pm 19.3 17.9 18.8 97 0.3 S 24 39 13 21 1014.7 1010.8 5.2
17/02:14pm 19.6 18.2 18.9 96 0.5 SSE 24 39 13 21 1014.8 1010.9 5.2
17/02:00pm 20.7 19.5 19.2 91 1.0 E 24 35 13 19 1013.4 1009.5 5.2
17/01:30pm 23.8 24.0 20.1 80 2.5 NNE 19 26 10 14 1013.8 1009.9 0.8
17/01:00pm 24.2 24.2 20.1 78 2.7 NNE 20 32 11 17 1013.7 1009.8 0.4
17/12:30pm 24.4 25.4 20.3 78 2.7 NNW 15 30 8 16 1014.8 1010.9 0.4
17/12:06pm 23.5 21.0 19.8 80 2.4 NNW 32 50 17 27 1013.8 1009.9 0.2
17/12:00pm 24.6 22.9 20.5 78 2.7 NNW 30 44 16 24 1014.2 1010.3 0.2
17/11:51am 24.7 21.8 20.0 75 3.1 N 35 54 19 29 1014.0 1010.1 0.2
17/11:30am 23.8 20.2 20.1 80 2.5 N 39 50 21 27 1013.6 1009.7 0.2
17/11:20am 23.2 19.8 19.8 81 2.2 N 37 56 20 30 1013.7 1009.8 0.2
17/11:00am 22.7 20.4 20.6 88 1.4 N 33 48 18 26 1014.2 1010.3 0.2
17/10:48am 22.6 21.2 21.1 91 1.0 N 30 41 16 22 1014.4 1010.5 0.2
17/10:30am 21.8 19.4 19.9 89 1.2 N 32 44 17 24 1014.5 1010.6 0.0
17/10:00am 22.4 21.2 20.1 87 1.5 N 26 39 14 21 1014.8 1010.9 0.0
17/09:53am 22.5 22.0 20.8 90 1.1 N 24 37 13 20 1014.8 1010.9 0.0
17/09:30am 21.7 21.1 20.5 93 0.8 N 24 32 13 17 1014.9 1011.0 0.0
17/09:00am 20.0 20.5 19.3 96 0.5 NNE 15 20 8 11 1015.5 1011.7 66.8
17/08:30am 20.1 20.5 18.9 93 0.8 N 15 20 8 11 1015.7 1011.9 66.2
17/08:00am 19.9 20.0 19.1 95 0.5 NNE 17 20 9 11 1014.8 1010.9 66.2
17/07:30am 19.6 19.6 18.9 96 0.5 NNE 17 28 9 15 1014.8 1010.9 66.2
17/07:00am 19.1 18.7 18.8 98 0.2 NNE 19 24 10 13 1013.9 1010.0 66.2
17/06:30am 19.1 19.4 18.8 98 0.2 N 15 20 8 11 1013.5 1009.6 66.2
17/06:00am 19.0 19.3 18.7 98 0.2 NNE 15 17 8 9 1013.4 1009.5 66.2
17/05:30am 19.1 19.3 18.6 97 0.3 ENE 15 17 8 9 1013.8 1009.9 66.2
17/05:00am 19.3 18.8 18.6 96 0.4 ENE 19 22 10 12 1013.4 1009.5 66.2
17/04:31am 19.4 20.0 18.6 95 0.5 ENE 13 22 7 12 1013.9 1010.0 66.2
17/04:30am 19.5 20.1 18.7 95 0.5 ENE 13 22 7 12 1013.9 1010.0 66.2
17/04:09am 19.8 21.6 18.8 94 0.6 SSW 7 13 4 7 1013.8 1009.9 64.8
17/04:00am 19.9 22.6 18.6 92 0.8 SSE 2 9 1 5 1014.2 1010.3 63.2
17/03:30am 19.8 20.5 18.8 94 0.6 ESE 13 19 7 10 1013.5 1009.6 63.2
17/03:00am 19.8 20.1 18.8 94 0.6 E 15 19 8 10 1013.7 1009.8 63.2
17/02:30am 19.9 20.6 18.9 94 0.6 ENE 13 17 7 9 1014.2 1010.3 63.2
17/02:00am 20.2 20.9 18.9 92 0.8 ENE 13 17 7 9 1014.4 1010.5 63.2
17/01:30am 21.0 21.7 18.9 88 1.4 N 13 20 7 11 1014.7 1010.8 62.4
17/01:00am 20.9 22.0 18.8 88 1.4 E 11 15 6 8 1014.3 1010.4 62.4
17/12:30am 21.0 20.8 18.6 86 1.5 ENE 17 22 9 12 1013.9 1010.0 62.4
17/12:00am 20.8 20.6 18.4 86 1.5 E 17 20 9 11 1013.9 1010.0 62.4
 
Date/Time
EDT
Temp
°C
App
Temp
°C
Dew
Point
°C
Rel
Hum
%
Delta-T
°C
Wind Press
QNH
hPa
Press
MSL
hPa
Rain since
9am
mm
Dir  Spd
km/h
Gust
km/h
Spd
kts
Gust
kts
16/11:30pm 21.2 21.6 18.2 83 1.9 ESE 13 19 7 10 1014.2 1010.3 62.4
16/11:00pm 21.5 22.4 19.2 87 1.5 E 13 19 7 10 1014.4 1010.5 62.4
16/10:30pm 21.1 23.3 19.6 91 1.0 SE 7 13 4 7 1014.3 1010.4 62.4
16/10:00pm 21.5 23.4 19.8 90 1.1 SSE 9 11 5 6 1014.2 1010.3 62.4
16/09:30pm 22.4 23.6 19.9 86 1.6 ESE 13 15 7 8 1013.9 1010.0 62.4
16/09:00pm 22.3 23.0 19.7 85 1.7 E 15 17 8 9 1013.5 1009.6 62.4
16/08:30pm 22.8 24.0 19.8 83 2.0 E 13 17 7 9 1013.2 1009.3 62.4
16/08:00pm 23.3 24.3 19.5 79 2.5 ENE 13 17 7 9 1012.9 1009.0 62.4
16/07:30pm 24.0 24.3 19.5 76 3.0 ENE 17 22 9 12 1012.6 1008.6 62.4
16/07:00pm 24.4 25.3 20.1 77 2.9 E 15 19 8 10 1012.9 1009.0 62.4
16/06:30pm 24.4 25.5 20.5 79 2.6 ESE 15 20 8 11 1012.9 1009.0 62.4
16/06:00pm 25.0 25.3 20.3 75 3.1 ESE 19 26 10 14 1013.0 1009.1 62.4
16/05:30pm 24.7 25.8 20.4 77 2.9 ENE 15 20 8 11 1012.3 1008.4 62.2
16/05:00pm 24.4 26.8 20.1 77 2.9 E 7 13 4 7 1012.1 1008.2 62.2
16/04:30pm 23.7 25.0 18.4 72 3.4 ESE 9 11 5 6 1012.1 1008.2 62.2
16/04:00pm 23.7 23.8 20.0 80 2.5 E 19 24 10 13 1012.3 1008.4 62.2
16/03:34pm 21.4 23.0 19.9 91 1.0 SE 11 17 6 9 1012.4 1008.5 62.2
16/03:30pm 21.5 23.2 20.1 92 0.9 SE 11 17 6 9 1012.3 1008.4 62.2
16/03:00pm 20.1 19.7 18.9 93 0.8 SSW 19 39 10 21 1013.1 1009.2 49.2
16/02:59pm 20.1 20.1 18.9 93 0.8 SSW 17 39 9 21 1013.2 1009.3 48.6
16/02:55pm 20.5 21.2 18.8 90 1.1 S 13 20 7 11 1012.9 1009.0 46.8
16/02:35pm 20.5 20.5 18.1 86 1.5 SW 15 26 8 14 1013.3 1009.4 45.0
16/02:30pm 20.9 21.1 17.7 82 2.0 NE 13 24 7 13 1013.0 1009.1 43.6
16/02:14pm 21.5 17.7 16.7 74 3.0 NE 32 46 17 25 1012.7 1008.7 42.6
16/02:10pm 21.2 17.2 17.6 80 2.3 NE 35 50 19 27 1012.7 1008.7 42.6
16/02:00pm 19.6 14.0 17.4 87 1.4 NE 43 87 23 47 1012.8 1008.9 42.6
16/01:56pm 20.0 15.0 17.0 83 1.9 NE 39 87 21 47 1012.4 1008.5 42.6
16/01:53pm 19.5 15.9 17.1 86 1.5 N 32 87 17 47 1011.8 1007.9 42.6
16/01:51pm 19.9 18.0 17.7 87 1.4 NW 24 65 13 35 1013.3 1009.4 42.0
16/01:50pm 19.6 17.9 17.2 86 1.5 WNW 22 65 12 35 1013.9 1010.0 41.8
16/01:49pm 19.5 18.2 16.9 85 1.6 W 19 50 10 27 1016.3 1012.4 40.2
16/01:37pm 21.2 18.6 17.8 81 2.2 S 28 57 15 31 1013.6 1009.7 17.2
16/01:35pm 20.2 17.3 16.0 77 2.6 S 26 57 14 31 1013.5 1009.6 15.0
16/01:30pm 23.3 22.3 18.0 72 3.4 S 20 32 11 17 1013.7 1009.8 7.4
16/01:26pm 24.9 25.2 19.5 72 3.6 SE 17 26 9 14 1013.1 1009.2 3.2
16/01:00pm 29.9 30.4 18.3 49 7.6 E 13 20 7 11 1013.1 1009.2 0.0
16/12:30pm 28.8 29.4 18.6 54 6.7 NE 13 17 7 9 1013.6 1009.7 0.0
16/12:00pm 28.1 28.8 17.9 54 6.6 NE 11 19 6 10 1013.9 1010.0 0.0
16/11:30am 27.1 27.5 17.3 55 6.3 ENE 11 17 6 9 1014.3 1010.4 0.0
16/11:00am 26.8 27.8 19.4 64 4.9 NE 13 20 7 11 1014.3 1010.4 0.0
16/10:30am 25.1 25.1 18.1 65 4.5 ENE 15 22 8 12 1014.3 1010.4 0.0
16/10:00am 24.0 24.0 18.0 69 3.9 ENE 15 19 8 10 1014.3 1010.4 0.0
16/09:30am 24.1 25.4 18.5 71 3.6 SE 9 15 5 8 1014.0 1010.1 0.0
16/09:00am 22.5 24.2 18.5 78 2.6 S 7 15 4 8 1013.9 1010.0 0.0
16/08:30am 21.2 23.0 18.8 86 1.5 SSW 7 15 4 8 1013.5 1009.6 0.0
16/08:00am 20.3 21.5 18.2 88 1.3 SSW 9 11 5 6 1013.2 1009.3 0.0
16/07:30am 19.7 21.0 18.4 92 0.8 SSW 9 11 5 6 1012.9 1009.0 0.0
16/07:00am 19.4 19.9 18.4 94 0.6 S 13 15 7 8 1012.3 1008.4 0.0
16/06:30am 19.3 20.1 18.1 93 0.8 S 11 11 6 6 1011.9 1008.0 0.0
16/06:00am 19.5 20.7 18.3 93 0.8 S 9 9 5 5 1011.7 1007.8 0.0
16/05:30am 19.5 20.7 18.2 92 0.8 SSW 9 9 5 5 1011.5 1007.6 0.0
16/05:00am 19.7 20.6 18.4 92 0.8 SSW 11 13 6 7 1011.4 1007.5 0.0
16/04:30am 19.8 20.7 18.3 91 1.0 S 11 11 6 6 1011.2 1007.2 0.0
16/04:00am 20.1 20.9 18.2 89 1.2 S 11 13 6 7 1011.2 1007.2 0.0
16/03:30am 20.4 21.6 18.2 87 1.4 S 9 11 5 6 1011.0 1007.0 0.0

Other formats

Comma delimited format used in spreadsheet applications
http://www.bom.gov.au/fwo/IDN60801/IDN60801.95728.axf

JavaScript Object Notation format (JSON) in row-major order
http://www.bom.gov.au/fwo/IDN60801/IDN60801.95728.json

Data quality

Most of these data are generated automatically and are frequently updated. Quality checks on data are not normally performed. It is possible for incorrect values to appear. Refer to information at About Latest Weather Observations and please check the disclaimer before using these data.